sensor_id;sensor_type;location;lat;lon;timestamp;temperature;humidity
41694;DHT22;27377;50.666;9.150;2023-03-18T00:01:56;7.90;99.90
41694;DHT22;27377;50.666;9.150;2023-03-18T00:04:22;7.90;99.90
41694;DHT22;27377;50.666;9.150;2023-03-18T00:06:48;8.00;99.90
41694;DHT22;27377;50.666;9.150;2023-03-18T00:09:14;8.10;99.90
41694;DHT22;27377;50.666;9.150;2023-03-18T00:11:40;8.10;99.90
41694;DHT22;27377;50.666;9.150;2023-03-18T00:14:07;8.10;99.90
41694;DHT22;27377;50.666;9.150;2023-03-18T00:16:34;8.10;99.90
41694;DHT22;27377;50.666;9.150;2023-03-18T00:19:01;8.20;99.90
41694;DHT22;27377;50.666;9.150;2023-03-18T00:21:29;8.20;99.90
41694;DHT22;27377;50.666;9.150;2023-03-18T00:23:55;8.20;99.90
41694;DHT22;27377;50.666;9.150;2023-03-18T00:26:23;8.30;99.90
41694;DHT22;27377;50.666;9.150;2023-03-18T00:28:50;8.30;99.90
41694;DHT22;27377;50.666;9.150;2023-03-18T00:31:16;8.30;99.90
41694;DHT22;27377;50.666;9.150;2023-03-18T00:33:42;8.40;99.90
41694;DHT22;27377;50.666;9.150;2023-03-18T00:36:11;8.30;99.90
41694;DHT22;27377;50.666;9.150;2023-03-18T00:38:38;8.40;99.90
41694;DHT22;27377;50.666;9.150;2023-03-18T00:41:06;8.40;99.90
41694;DHT22;27377;50.666;9.150;2023-03-18T00:43:44;8.40;99.90
41694;DHT22;27377;50.666;9.150;2023-03-18T00:46:15;8.50;99.90
41694;DHT22;27377;50.666;9.150;2023-03-18T00:48:42;8.50;99.90
41694;DHT22;27377;50.666;9.150;2023-03-18T00:51:08;8.50;99.90
41694;DHT22;27377;50.666;9.150;2023-03-18T00:53:45;8.50;99.90
41694;DHT22;27377;50.666;9.150;2023-03-18T00:56:12;8.60;99.90
41694;DHT22;27377;50.666;9.150;2023-03-18T00:58:38;8.60;99.90
41694;DHT22;27377;50.666;9.150;2023-03-18T01:01:06;8.60;99.90
41694;DHT22;27377;50.666;9.150;2023-03-18T01:03:31;8.70;99.90
41694;DHT22;27377;50.666;9.150;2023-03-18T01:06:01;8.70;99.90
41694;DHT22;27377;50.666;9.150;2023-03-18T01:08:27;8.70;99.90
41694;DHT22;27377;50.666;9.150;2023-03-18T01:10:54;8.70;99.90
41694;DHT22;27377;50.666;9.150;2023-03-18T01:13:19;8.80;99.90
41694;DHT22;27377;50.666;9.150;2023-03-18T01:15:45;8.80;99.90
41694;DHT22;27377;50.666;9.150;2023-03-18T01:18:12;8.80;99.90
41694;DHT22;27377;50.666;9.150;2023-03-18T01:20:38;8.90;99.90
41694;DHT22;27377;50.666;9.150;2023-03-18T01:23:04;8.90;99.90
41694;DHT22;27377;50.666;9.150;2023-03-18T01:25:30;8.90;99.90
41694;DHT22;27377;50.666;9.150;2023-03-18T01:27:56;8.90;99.90
41694;DHT22;27377;50.666;9.150;2023-03-18T01:30:22;8.90;99.90
41694;DHT22;27377;50.666;9.150;2023-03-18T01:32:48;8.90;99.90
41694;DHT22;27377;50.666;9.150;2023-03-18T01:35:14;9.00;99.90
41694;DHT22;27377;50.666;9.150;2023-03-18T01:37:39;9.00;99.90
41694;DHT22;27377;50.666;9.150;2023-03-18T01:40:07;9.00;99.90
41694;DHT22;27377;50.666;9.150;2023-03-18T01:42:33;9.00;99.90
41694;DHT22;27377;50.666;9.150;2023-03-18T01:47:40;9.00;99.90
41694;DHT22;27377;50.666;9.150;2023-03-18T01:50:09;8.90;99.90
41694;DHT22;27377;50.666;9.150;2023-03-18T01:52:35;8.90;99.90
41694;DHT22;27377;50.666;9.150;2023-03-18T01:55:11;8.90;99.90
41694;DHT22;27377;50.666;9.150;2023-03-18T01:57:38;9.00;99.90
41694;DHT22;27377;50.666;9.150;2023-03-18T02:00:06;9.00;99.90
41694;DHT22;27377;50.666;9.150;2023-03-18T02:02:39;9.00;99.90
41694;DHT22;27377;50.666;9.150;2023-03-18T02:05:08;8.90;99.90
41694;DHT22;27377;50.666;9.150;2023-03-18T02:07:36;8.80;99.90
41694;DHT22;27377;50.666;9.150;2023-03-18T02:10:18;8.80;99.90
41694;DHT22;27377;50.666;9.150;2023-03-18T02:12:48;8.80;99.90
41694;DHT22;27377;50.666;9.150;2023-03-18T02:15:18;8.80;99.90
41694;DHT22;27377;50.666;9.150;2023-03-18T02:17:58;8.70;99.90
41694;DHT22;27377;50.666;9.150;2023-03-18T02:20:34;8.70;99.90
41694;DHT22;27377;50.666;9.150;2023-03-18T02:23:14;8.70;99.90
41694;DHT22;27377;50.666;9.150;2023-03-18T02:25:57;8.60;99.90
41694;DHT22;27377;50.666;9.150;2023-03-18T02:28:26;8.50;99.90
41694;DHT22;27377;50.666;9.150;2023-03-18T02:30:58;8.50;99.90
41694;DHT22;27377;50.666;9.150;2023-03-18T02:33:30;8.50;99.90
41694;DHT22;27377;50.666;9.150;2023-03-18T02:36:02;8.50;99.90
41694;DHT22;27377;50.666;9.150;2023-03-18T02:38:28;8.50;99.90
41694;DHT22;27377;50.666;9.150;2023-03-18T02:40:53;8.40;99.90
41694;DHT22;27377;50.666;9.150;2023-03-18T02:43:28;8.40;99.90
41694;DHT22;27377;50.666;9.150;2023-03-18T02:46:20;8.40;99.90
41694;DHT22;27377;50.666;9.150;2023-03-18T02:48:47;8.40;99.90
41694;DHT22;27377;50.666;9.150;2023-03-18T02:51:15;8.30;99.90
41694;DHT22;27377;50.666;9.150;2023-03-18T02:53:42;8.30;99.90
41694;DHT22;27377;50.666;9.150;2023-03-18T02:56:08;8.30;99.90
41694;DHT22;27377;50.666;9.150;2023-03-18T02:58:35;8.30;99.90
41694;DHT22;27377;50.666;9.150;2023-03-18T03:01:01;8.20;99.90
41694;DHT22;27377;50.666;9.150;2023-03-18T03:03:27;8.20;99.90
41694;DHT22;27377;50.666;9.150;2023-03-18T03:05:54;8.20;99.90
41694;DHT22;27377;50.666;9.150;2023-03-18T03:08:20;8.20;99.90
41694;DHT22;27377;50.666;9.150;2023-03-18T03:10:46;8.10;99.90
41694;DHT22;27377;50.666;9.150;2023-03-18T03:13:12;8.10;99.90
41694;DHT22;27377;50.666;9.150;2023-03-18T03:15:38;8.10;99.90
41694;DHT22;27377;50.666;9.150;2023-03-18T03:18:04;8.10;99.90
41694;DHT22;27377;50.666;9.150;2023-03-18T03:20:32;8.10;99.90
41694;DHT22;27377;50.666;9.150;2023-03-18T03:23:04;8.20;99.90
41694;DHT22;27377;50.666;9.150;2023-03-18T03:25:30;8.10;99.90
41694;DHT22;27377;50.666;9.150;2023-03-18T03:27:57;8.20;99.90
41694;DHT22;27377;50.666;9.150;2023-03-18T03:30:23;8.10;99.90
41694;DHT22;27377;50.666;9.150;2023-03-18T03:32:48;8.10;99.90
41694;DHT22;27377;50.666;9.150;2023-03-18T03:35:16;8.10;99.90
41694;DHT22;27377;50.666;9.150;2023-03-18T03:37:45;8.10;99.90
41694;DHT22;27377;50.666;9.150;2023-03-18T03:40:14;8.10;99.90
41694;DHT22;27377;50.666;9.150;2023-03-18T03:42:41;8.10;99.90
41694;DHT22;27377;50.666;9.150;2023-03-18T03:45:08;8.10;99.90
41694;DHT22;27377;50.666;9.150;2023-03-18T03:47:34;8.10;99.90
41694;DHT22;27377;50.666;9.150;2023-03-18T03:50:01;8.10;99.90
41694;DHT22;27377;50.666;9.150;2023-03-18T03:52:27;8.20;99.90
41694;DHT22;27377;50.666;9.150;2023-03-18T03:54:53;8.10;99.90
41694;DHT22;27377;50.666;9.150;2023-03-18T03:57:21;8.10;99.90
41694;DHT22;27377;50.666;9.150;2023-03-18T03:59:52;8.10;99.90
41694;DHT22;27377;50.666;9.150;2023-03-18T04:02:18;8.10;99.90
41694;DHT22;27377;50.666;9.150;2023-03-18T04:04:44;8.10;99.90
41694;DHT22;27377;50.666;9.150;2023-03-18T04:07:11;8.10;99.90
41694;DHT22;27377;50.666;9.150;2023-03-18T04:09:38;8.10;99.90
41694;DHT22;27377;50.666;9.150;2023-03-18T04:12:06;8.10;99.90
41694;DHT22;27377;50.666;9.150;2023-03-18T04:14:32;8.20;99.90
41694;DHT22;27377;50.666;9.150;2023-03-18T04:16:57;8.10;99.90
41694;DHT22;27377;50.666;9.150;2023-03-18T04:19:25;8.10;99.90
41694;DHT22;27377;50.666;9.150;2023-03-18T04:21:52;8.10;99.90
41694;DHT22;27377;50.666;9.150;2023-03-18T04:24:19;8.10;99.90
41694;DHT22;27377;50.666;9.150;2023-03-18T04:26:44;8.10;99.90
41694;DHT22;27377;50.666;9.150;2023-03-18T04:29:10;8.10;99.90
41694;DHT22;27377;50.666;9.150;2023-03-18T04:31:36;8.10;99.90
41694;DHT22;27377;50.666;9.150;2023-03-18T04:34:02;8.10;99.90
41694;DHT22;27377;50.666;9.150;2023-03-18T04:36:28;8.10;99.90
41694;DHT22;27377;50.666;9.150;2023-03-18T04:38:54;8.10;99.90
41694;DHT22;27377;50.666;9.150;2023-03-18T04:41:20;8.10;99.90
41694;DHT22;27377;50.666;9.150;2023-03-18T04:43:46;8.10;99.90
41694;DHT22;27377;50.666;9.150;2023-03-18T04:46:12;8.10;99.90
41694;DHT22;27377;50.666;9.150;2023-03-18T04:48:38;8.10;99.90
41694;DHT22;27377;50.666;9.150;2023-03-18T04:51:04;8.10;99.90
41694;DHT22;27377;50.666;9.150;2023-03-18T04:53:33;8.10;99.90
41694;DHT22;27377;50.666;9.150;2023-03-18T04:55:59;8.10;99.90
41694;DHT22;27377;50.666;9.150;2023-03-18T04:58:24;8.10;99.90
41694;DHT22;27377;50.666;9.150;2023-03-18T05:00:50;8.10;99.90
41694;DHT22;27377;50.666;9.150;2023-03-18T05:03:17;8.10;99.90
41694;DHT22;27377;50.666;9.150;2023-03-18T05:05:43;8.10;99.90
41694;DHT22;27377;50.666;9.150;2023-03-18T05:08:09;8.20;99.90
41694;DHT22;27377;50.666;9.150;2023-03-18T05:10:35;8.20;99.90
41694;DHT22;27377;50.666;9.150;2023-03-18T05:13:01;8.30;99.90
41694;DHT22;27377;50.666;9.150;2023-03-18T05:15:28;8.30;99.90
41694;DHT22;27377;50.666;9.150;2023-03-18T05:17:54;8.40;99.90
41694;DHT22;27377;50.666;9.150;2023-03-18T05:20:20;8.40;99.90
41694;DHT22;27377;50.666;9.150;2023-03-18T05:22:46;8.50;99.90
41694;DHT22;27377;50.666;9.150;2023-03-18T05:25:12;8.50;99.90
41694;DHT22;27377;50.666;9.150;2023-03-18T05:27:38;8.50;99.90
41694;DHT22;27377;50.666;9.150;2023-03-18T05:30:06;8.60;99.90
41694;DHT22;27377;50.666;9.150;2023-03-18T05:32:32;8.60;99.90
41694;DHT22;27377;50.666;9.150;2023-03-18T05:34:58;8.60;99.90
41694;DHT22;27377;50.666;9.150;2023-03-18T05:37:24;8.60;99.90
41694;DHT22;27377;50.666;9.150;2023-03-18T05:39:50;8.60;99.90
41694;DHT22;27377;50.666;9.150;2023-03-18T05:42:16;8.60;99.90
41694;DHT22;27377;50.666;9.150;2023-03-18T05:44:42;8.60;99.90
41694;DHT22;27377;50.666;9.150;2023-03-18T05:47:09;8.60;99.90
41694;DHT22;27377;50.666;9.150;2023-03-18T05:49:35;8.60;99.90
41694;DHT22;27377;50.666;9.150;2023-03-18T05:52:01;8.70;99.90
41694;DHT22;27377;50.666;9.150;2023-03-18T05:54:27;8.60;99.90
41694;DHT22;27377;50.666;9.150;2023-03-18T05:56:53;8.60;99.90
41694;DHT22;27377;50.666;9.150;2023-03-18T05:59:20;8.60;99.90
41694;DHT22;27377;50.666;9.150;2023-03-18T06:01:47;8.60;99.90
41694;DHT22;27377;50.666;9.150;2023-03-18T06:04:13;8.60;99.90
41694;DHT22;27377;50.666;9.150;2023-03-18T06:06:42;8.60;99.90
41694;DHT22;27377;50.666;9.150;2023-03-18T06:09:08;8.60;99.90
41694;DHT22;27377;50.666;9.150;2023-03-18T06:11:35;8.60;99.90
41694;DHT22;27377;50.666;9.150;2023-03-18T06:14:02;8.60;99.90
41694;DHT22;27377;50.666;9.150;2023-03-18T06:16:30;8.70;99.90
41694;DHT22;27377;50.666;9.150;2023-03-18T06:18:58;8.70;99.90
41694;DHT22;27377;50.666;9.150;2023-03-18T06:21:24;8.70;99.90
41694;DHT22;27377;50.666;9.150;2023-03-18T06:23:52;8.70;99.90
41694;DHT22;27377;50.666;9.150;2023-03-18T06:26:18;8.70;99.90
41694;DHT22;27377;50.666;9.150;2023-03-18T06:28:48;8.70;99.90
41694;DHT22;27377;50.666;9.150;2023-03-18T06:31:14;8.70;99.90
41694;DHT22;27377;50.666;9.150;2023-03-18T06:33:39;8.80;99.90
41694;DHT22;27377;50.666;9.150;2023-03-18T06:36:05;8.80;99.90
41694;DHT22;27377;50.666;9.150;2023-03-18T06:38:31;8.80;99.90
41694;DHT22;27377;50.666;9.150;2023-03-18T06:40:57;8.80;99.90
41694;DHT22;27377;50.666;9.150;2023-03-18T06:43:24;8.80;99.90
41694;DHT22;27377;50.666;9.150;2023-03-18T06:45:51;8.80;99.90
41694;DHT22;27377;50.666;9.150;2023-03-18T06:48:17;8.80;99.90
41694;DHT22;27377;50.666;9.150;2023-03-18T06:50:46;8.90;99.90
41694;DHT22;27377;50.666;9.150;2023-03-18T06:53:12;8.90;99.90
41694;DHT22;27377;50.666;9.150;2023-03-18T06:55:38;8.90;99.90
41694;DHT22;27377;50.666;9.150;2023-03-18T06:58:04;8.90;99.90
41694;DHT22;27377;50.666;9.150;2023-03-18T07:00:31;9.00;99.90
41694;DHT22;27377;50.666;9.150;2023-03-18T07:02:58;8.90;99.90
41694;DHT22;27377;50.666;9.150;2023-03-18T07:05:24;9.00;99.90
41694;DHT22;27377;50.666;9.150;2023-03-18T07:07:50;9.00;99.90
41694;DHT22;27377;50.666;9.150;2023-03-18T07:10:22;9.00;99.90
41694;DHT22;27377;50.666;9.150;2023-03-18T07:12:49;9.00;99.90
41694;DHT22;27377;50.666;9.150;2023-03-18T07:15:17;9.00;99.90
41694;DHT22;27377;50.666;9.150;2023-03-18T07:17:44;9.10;99.90
41694;DHT22;27377;50.666;9.150;2023-03-18T07:20:11;9.10;99.90
41694;DHT22;27377;50.666;9.150;2023-03-18T07:22:36;9.10;99.90
41694;DHT22;27377;50.666;9.150;2023-03-18T07:25:03;9.20;99.90
41694;DHT22;27377;50.666;9.150;2023-03-18T07:27:28;9.10;99.90
41694;DHT22;27377;50.666;9.150;2023-03-18T07:29:54;9.20;99.90
41694;DHT22;27377;50.666;9.150;2023-03-18T07:32:20;9.20;99.90
41694;DHT22;27377;50.666;9.150;2023-03-18T07:34:46;9.20;99.90
41694;DHT22;27377;50.666;9.150;2023-03-18T07:37:13;9.20;99.90
41694;DHT22;27377;50.666;9.150;2023-03-18T07:39:39;9.20;99.90
41694;DHT22;27377;50.666;9.150;2023-03-18T07:42:04;9.30;99.90
41694;DHT22;27377;50.666;9.150;2023-03-18T07:44:30;9.30;99.90
41694;DHT22;27377;50.666;9.150;2023-03-18T07:46:56;9.30;99.90
41694;DHT22;27377;50.666;9.150;2023-03-18T07:49:22;9.30;99.90
41694;DHT22;27377;50.666;9.150;2023-03-18T07:51:48;9.30;99.90
41694;DHT22;27377;50.666;9.150;2023-03-18T07:54:14;9.40;99.90
41694;DHT22;27377;50.666;9.150;2023-03-18T07:56:39;9.40;99.90
41694;DHT22;27377;50.666;9.150;2023-03-18T07:59:05;9.40;99.90
41694;DHT22;27377;50.666;9.150;2023-03-18T08:01:31;9.50;99.90
41694;DHT22;27377;50.666;9.150;2023-03-18T08:03:57;9.50;99.90
41694;DHT22;27377;50.666;9.150;2023-03-18T08:06:23;9.50;99.90
41694;DHT22;27377;50.666;9.150;2023-03-18T08:08:49;9.50;99.90
41694;DHT22;27377;50.666;9.150;2023-03-18T08:11:15;9.50;99.90
41694;DHT22;27377;50.666;9.150;2023-03-18T08:13:40;9.60;99.90
41694;DHT22;27377;50.666;9.150;2023-03-18T08:16:06;9.60;99.90
41694;DHT22;27377;50.666;9.150;2023-03-18T08:18:32;9.60;99.90
41694;DHT22;27377;50.666;9.150;2023-03-18T08:20:57;9.70;99.90
41694;DHT22;27377;50.666;9.150;2023-03-18T08:23:23;9.70;99.90
41694;DHT22;27377;50.666;9.150;2023-03-18T08:25:49;9.70;99.90
41694;DHT22;27377;50.666;9.150;2023-03-18T08:28:16;9.70;99.90
41694;DHT22;27377;50.666;9.150;2023-03-18T08:30:42;9.80;99.90
41694;DHT22;27377;50.666;9.150;2023-03-18T08:33:08;9.80;99.90
41694;DHT22;27377;50.666;9.150;2023-03-18T08:35:34;9.80;99.90
41694;DHT22;27377;50.666;9.150;2023-03-18T08:38:00;9.90;99.90
41694;DHT22;27377;50.666;9.150;2023-03-18T08:40:26;9.90;99.90
41694;DHT22;27377;50.666;9.150;2023-03-18T08:42:51;9.90;99.90
41694;DHT22;27377;50.666;9.150;2023-03-18T08:45:18;9.90;99.90
41694;DHT22;27377;50.666;9.150;2023-03-18T08:47:44;10.00;99.90
41694;DHT22;27377;50.666;9.150;2023-03-18T08:50:11;10.00;99.90
41694;DHT22;27377;50.666;9.150;2023-03-18T08:52:37;10.00;99.90
41694;DHT22;27377;50.666;9.150;2023-03-18T08:55:05;10.00;99.90
41694;DHT22;27377;50.666;9.150;2023-03-18T08:57:31;10.00;99.90
41694;DHT22;27377;50.666;9.150;2023-03-18T08:59:57;10.10;99.90
41694;DHT22;27377;50.666;9.150;2023-03-18T09:02:22;10.10;99.90
41694;DHT22;27377;50.666;9.150;2023-03-18T09:04:48;10.20;99.90
41694;DHT22;27377;50.666;9.150;2023-03-18T09:07:14;10.20;99.90
41694;DHT22;27377;50.666;9.150;2023-03-18T09:09:40;10.20;99.90
41694;DHT22;27377;50.666;9.150;2023-03-18T09:12:07;10.30;99.90
41694;DHT22;27377;50.666;9.150;2023-03-18T09:14:33;10.30;99.90
41694;DHT22;27377;50.666;9.150;2023-03-18T09:16:59;10.30;99.90
41694;DHT22;27377;50.666;9.150;2023-03-18T09:19:26;10.40;99.90
41694;DHT22;27377;50.666;9.150;2023-03-18T09:21:51;10.40;99.90
41694;DHT22;27377;50.666;9.150;2023-03-18T09:24:17;10.40;99.90
41694;DHT22;27377;50.666;9.150;2023-03-18T09:26:43;10.50;99.90
41694;DHT22;27377;50.666;9.150;2023-03-18T09:29:08;10.60;99.90
41694;DHT22;27377;50.666;9.150;2023-03-18T09:31:35;10.50;99.90
41694;DHT22;27377;50.666;9.150;2023-03-18T09:34:01;10.60;99.90
41694;DHT22;27377;50.666;9.150;2023-03-18T09:36:27;10.60;99.90
41694;DHT22;27377;50.666;9.150;2023-03-18T09:38:53;10.60;99.90
41694;DHT22;27377;50.666;9.150;2023-03-18T09:49:44;10.80;99.90
41694;DHT22;27377;50.666;9.150;2023-03-18T09:52:21;10.80;99.90
41694;DHT22;27377;50.666;9.150;2023-03-18T09:54:58;10.80;99.90
41694;DHT22;27377;50.666;9.150;2023-03-18T09:57:33;10.90;99.90
41694;DHT22;27377;50.666;9.150;2023-03-18T10:00:14;10.90;99.90
41694;DHT22;27377;50.666;9.150;2023-03-18T10:05:16;10.90;99.90
41694;DHT22;27377;50.666;9.150;2023-03-18T10:07:45;11.00;99.90
41694;DHT22;27377;50.666;9.150;2023-03-18T10:10:27;11.00;99.90
41694;DHT22;27377;50.666;9.150;2023-03-18T10:15:57;11.10;99.90
41694;DHT22;27377;50.666;9.150;2023-03-18T10:18:29;11.10;99.90
41694;DHT22;27377;50.666;9.150;2023-03-18T10:27:06;11.30;99.90
41694;DHT22;27377;50.666;9.150;2023-03-18T10:29:41;11.30;99.90
41694;DHT22;27377;50.666;9.150;2023-03-18T10:32:44;11.30;99.90
41694;DHT22;27377;50.666;9.150;2023-03-18T10:36:12;11.40;99.90
41694;DHT22;27377;50.666;9.150;2023-03-18T10:38:22;11.40;99.90
41694;DHT22;27377;50.666;9.150;2023-03-18T10:40:48;11.40;99.90
41694;DHT22;27377;50.666;9.150;2023-03-18T10:43:23;11.40;99.90
41694;DHT22;27377;50.666;9.150;2023-03-18T10:46:01;11.50;99.90
41694;DHT22;27377;50.666;9.150;2023-03-18T10:48:36;11.50;99.90
41694;DHT22;27377;50.666;9.150;2023-03-18T10:51:16;11.50;99.90
41694;DHT22;27377;50.666;9.150;2023-03-18T10:53:52;11.60;99.90
41694;DHT22;27377;50.666;9.150;2023-03-18T10:56:19;11.60;99.90
41694;DHT22;27377;50.666;9.150;2023-03-18T10:58:45;11.60;99.90
41694;DHT22;27377;50.666;9.150;2023-03-18T11:01:13;11.70;99.90
41694;DHT22;27377;50.666;9.150;2023-03-18T11:03:52;11.70;99.90
41694;DHT22;27377;50.666;9.150;2023-03-18T11:08:47;11.80;99.90
41694;DHT22;27377;50.666;9.150;2023-03-18T11:11:28;11.80;99.90
41694;DHT22;27377;50.666;9.150;2023-03-18T11:13:57;11.80;99.90
41694;DHT22;27377;50.666;9.150;2023-03-18T11:16:35;11.90;99.90
41694;DHT22;27377;50.666;9.150;2023-03-18T11:24:36;12.00;99.90
41694;DHT22;27377;50.666;9.150;2023-03-18T11:27:33;12.00;99.90
41694;DHT22;27377;50.666;9.150;2023-03-18T11:30:03;12.10;99.90
41694;DHT22;27377;50.666;9.150;2023-03-18T11:32:32;12.20;99.90
41694;DHT22;27377;50.666;9.150;2023-03-18T11:35:00;12.10;99.90
41694;DHT22;27377;50.666;9.150;2023-03-18T11:37:35;12.20;99.90
41694;DHT22;27377;50.666;9.150;2023-03-18T11:40:14;12.30;99.90
41694;DHT22;27377;50.666;9.150;2023-03-18T11:42:45;12.30;99.90
41694;DHT22;27377;50.666;9.150;2023-03-18T11:47:56;12.40;99.90
41694;DHT22;27377;50.666;9.150;2023-03-18T11:50:23;12.40;99.90
41694;DHT22;27377;50.666;9.150;2023-03-18T11:53:07;12.40;99.90
41694;DHT22;27377;50.666;9.150;2023-03-18T11:55:45;12.50;99.90
41694;DHT22;27377;50.666;9.150;2023-03-18T11:58:49;12.50;99.90
41694;DHT22;27377;50.666;9.150;2023-03-18T12:01:41;12.60;99.90
41694;DHT22;27377;50.666;9.150;2023-03-18T12:10:15;12.70;99.90
41694;DHT22;27377;50.666;9.150;2023-03-18T12:13:26;12.70;99.90
41694;DHT22;27377;50.666;9.150;2023-03-18T12:16:19;12.70;99.90
41694;DHT22;27377;50.666;9.150;2023-03-18T12:18:59;12.70;99.90
41694;DHT22;27377;50.666;9.150;2023-03-18T12:21:47;12.70;99.90
41694;DHT22;27377;50.666;9.150;2023-03-18T12:27:33;12.80;99.90
41694;DHT22;27377;50.666;9.150;2023-03-18T12:30:06;12.80;99.90
41694;DHT22;27377;50.666;9.150;2023-03-18T12:32:39;12.90;99.90
41694;DHT22;27377;50.666;9.150;2023-03-18T12:35:19;12.90;99.90
41694;DHT22;27377;50.666;9.150;2023-03-18T12:46:29;13.20;99.90
41694;DHT22;27377;50.666;9.150;2023-03-18T12:49:03;13.20;99.90
41694;DHT22;27377;50.666;9.150;2023-03-18T12:51:47;13.20;99.90
41694;DHT22;27377;50.666;9.150;2023-03-18T12:54:23;13.20;99.90
41694;DHT22;27377;50.666;9.150;2023-03-18T12:56:54;13.20;99.90
41694;DHT22;27377;50.666;9.150;2023-03-18T12:59:38;13.30;99.90
41694;DHT22;27377;50.666;9.150;2023-03-18T13:02:34;13.30;99.90
41694;DHT22;27377;50.666;9.150;2023-03-18T13:05:03;13.30;99.90
41694;DHT22;27377;50.666;9.150;2023-03-18T13:07:48;13.30;99.90
41694;DHT22;27377;50.666;9.150;2023-03-18T13:10:21;13.30;99.90
41694;DHT22;27377;50.666;9.150;2023-03-18T13:12:54;13.20;99.90
41694;DHT22;27377;50.666;9.150;2023-03-18T13:15:34;13.20;99.90
41694;DHT22;27377;50.666;9.150;2023-03-18T13:18:14;13.30;99.90
41694;DHT22;27377;50.666;9.150;2023-03-18T13:20:42;13.30;99.90
41694;DHT22;27377;50.666;9.150;2023-03-18T13:28:40;13.30;99.90
41694;DHT22;27377;50.666;9.150;2023-03-18T13:36:53;13.30;99.90
41694;DHT22;27377;50.666;9.150;2023-03-18T13:42:20;13.40;99.90
41694;DHT22;27377;50.666;9.150;2023-03-18T13:47:41;13.30;99.90
41694;DHT22;27377;50.666;9.150;2023-03-18T13:52:46;13.30;99.90
41694;DHT22;27377;50.666;9.150;2023-03-18T14:00:38;13.30;99.90
41694;DHT22;27377;50.666;9.150;2023-03-18T14:03:20;13.30;99.90
41694;DHT22;27377;50.666;9.150;2023-03-18T14:06:17;13.30;99.90
41694;DHT22;27377;50.666;9.150;2023-03-18T14:13:57;13.30;99.90
41694;DHT22;27377;50.666;9.150;2023-03-18T14:19:13;13.30;99.90
41694;DHT22;27377;50.666;9.150;2023-03-18T14:21:48;13.30;99.90
41694;DHT22;27377;50.666;9.150;2023-03-18T14:32:03;13.30;99.90
41694;DHT22;27377;50.666;9.150;2023-03-18T14:34:37;13.30;99.90
41694;DHT22;27377;50.666;9.150;2023-03-18T14:37:26;13.30;99.90
41694;DHT22;27377;50.666;9.150;2023-03-18T14:39:54;13.40;99.90
41694;DHT22;27377;50.666;9.150;2023-03-18T14:42:36;13.40;99.90
41694;DHT22;27377;50.666;9.150;2023-03-18T14:45:16;13.40;99.90
41694;DHT22;27377;50.666;9.150;2023-03-18T14:47:44;13.40;99.90
41694;DHT22;27377;50.666;9.150;2023-03-18T14:50:27;13.40;99.90
41694;DHT22;27377;50.666;9.150;2023-03-18T14:53:04;13.40;99.90
41694;DHT22;27377;50.666;9.150;2023-03-18T14:55:34;13.40;99.90
41694;DHT22;27377;50.666;9.150;2023-03-18T14:58:00;13.30;99.90
41694;DHT22;27377;50.666;9.150;2023-03-18T15:00:32;13.40;99.90
41694;DHT22;27377;50.666;9.150;2023-03-18T15:03:16;13.40;99.90
41694;DHT22;27377;50.666;9.150;2023-03-18T15:05:44;13.30;99.90
41694;DHT22;27377;50.666;9.150;2023-03-18T15:08:20;13.30;99.90
41694;DHT22;27377;50.666;9.150;2023-03-18T15:10:48;13.30;99.90
41694;DHT22;27377;50.666;9.150;2023-03-18T15:13:21;13.30;99.90
41694;DHT22;27377;50.666;9.150;2023-03-18T15:15:52;13.40;99.90
41694;DHT22;27377;50.666;9.150;2023-03-18T15:20:54;13.40;99.90
41694;DHT22;27377;50.666;9.150;2023-03-18T15:23:30;13.40;99.90
41694;DHT22;27377;50.666;9.150;2023-03-18T15:25:56;13.40;99.90
41694;DHT22;27377;50.666;9.150;2023-03-18T15:28:23;13.30;99.90
41694;DHT22;27377;50.666;9.150;2023-03-18T15:30:57;13.30;99.90
41694;DHT22;27377;50.666;9.150;2023-03-18T15:33:29;13.30;99.90
41694;DHT22;27377;50.666;9.150;2023-03-18T15:35:59;13.30;99.90
41694;DHT22;27377;50.666;9.150;2023-03-18T15:38:28;13.30;99.90
41694;DHT22;27377;50.666;9.150;2023-03-18T15:43:31;13.30;99.90
41694;DHT22;27377;50.666;9.150;2023-03-18T15:46:04;13.30;99.90
41694;DHT22;27377;50.666;9.150;2023-03-18T15:48:43;13.30;99.90
41694;DHT22;27377;50.666;9.150;2023-03-18T15:51:25;13.30;99.90
41694;DHT22;27377;50.666;9.150;2023-03-18T15:53:54;13.30;99.90
41694;DHT22;27377;50.666;9.150;2023-03-18T15:56:28;13.20;99.90
41694;DHT22;27377;50.666;9.150;2023-03-18T15:58:57;13.20;99.90
41694;DHT22;27377;50.666;9.150;2023-03-18T16:01:23;13.20;99.90
41694;DHT22;27377;50.666;9.150;2023-03-18T16:03:49;13.20;99.90
41694;DHT22;27377;50.666;9.150;2023-03-18T16:06:14;13.20;99.90
41694;DHT22;27377;50.666;9.150;2023-03-18T16:08:41;13.20;99.90
41694;DHT22;27377;50.666;9.150;2023-03-18T16:11:08;13.20;99.90
41694;DHT22;27377;50.666;9.150;2023-03-18T16:13:35;13.20;99.90
41694;DHT22;27377;50.666;9.150;2023-03-18T16:16:01;13.20;99.90
41694;DHT22;27377;50.666;9.150;2023-03-18T16:18:28;13.20;99.90
41694;DHT22;27377;50.666;9.150;2023-03-18T16:20:53;13.20;99.90
41694;DHT22;27377;50.666;9.150;2023-03-18T16:23:20;13.20;99.90
41694;DHT22;27377;50.666;9.150;2023-03-18T16:25:51;13.10;99.90
41694;DHT22;27377;50.666;9.150;2023-03-18T16:28:18;13.10;99.90
41694;DHT22;27377;50.666;9.150;2023-03-18T16:30:45;13.10;99.90
41694;DHT22;27377;50.666;9.150;2023-03-18T16:33:12;13.10;99.90
41694;DHT22;27377;50.666;9.150;2023-03-18T16:35:39;13.10;99.90
41694;DHT22;27377;50.666;9.150;2023-03-18T16:38:05;13.10;99.90
41694;DHT22;27377;50.666;9.150;2023-03-18T16:40:31;13.10;99.90
41694;DHT22;27377;50.666;9.150;2023-03-18T16:42:57;13.10;99.90
41694;DHT22;27377;50.666;9.150;2023-03-18T16:45:28;13.00;99.90
41694;DHT22;27377;50.666;9.150;2023-03-18T16:48:00;13.00;99.90
41694;DHT22;27377;50.666;9.150;2023-03-18T16:50:29;13.00;99.90
41694;DHT22;27377;50.666;9.150;2023-03-18T16:52:57;13.00;99.90
41694;DHT22;27377;50.666;9.150;2023-03-18T16:55:24;13.00;99.90
41694;DHT22;27377;50.666;9.150;2023-03-18T16:57:57;12.90;99.90
41694;DHT22;27377;50.666;9.150;2023-03-18T17:00:25;12.90;99.90
41694;DHT22;27377;50.666;9.150;2023-03-18T17:02:52;12.90;99.90
41694;DHT22;27377;50.666;9.150;2023-03-18T17:05:19;12.80;99.90
41694;DHT22;27377;50.666;9.150;2023-03-18T17:07:45;12.80;99.90
41694;DHT22;27377;50.666;9.150;2023-03-18T17:10:13;12.80;99.90
41694;DHT22;27377;50.666;9.150;2023-03-18T17:12:47;12.80;99.90
41694;DHT22;27377;50.666;9.150;2023-03-18T17:15:15;12.70;99.90
41694;DHT22;27377;50.666;9.150;2023-03-18T17:17:42;12.70;99.90
41694;DHT22;27377;50.666;9.150;2023-03-18T17:20:20;12.60;99.90
41694;DHT22;27377;50.666;9.150;2023-03-18T17:22:46;12.60;99.90
41694;DHT22;27377;50.666;9.150;2023-03-18T17:25:13;12.60;99.90
41694;DHT22;27377;50.666;9.150;2023-03-18T17:27:47;12.50;99.90
41694;DHT22;27377;50.666;9.150;2023-03-18T17:30:23;12.40;99.90
41694;DHT22;27377;50.666;9.150;2023-03-18T17:32:49;12.30;99.90